createdAt,value
2023-03-17T00:01:14.641Z,101788.72
2023-03-17T00:08:05.538Z,101794.13
2023-03-17T00:14:48.426Z,101791.03
2023-03-17T00:21:33.205Z,101780.13
2023-03-17T00:28:22.932Z,101785.66
2023-03-17T00:35:14.909Z,101773.84
2023-03-17T00:41:58.185Z,101773.13
2023-03-17T00:48:43.160Z,101767.28
2023-03-17T00:55:27.134Z,101759.63
2023-03-17T01:02:13.301Z,101763.22
2023-03-17T01:08:55.960Z,101768.47
2023-03-17T01:15:45.517Z,101783.25
2023-03-17T01:22:27.754Z,101783.31
2023-03-17T01:29:10.102Z,101767.00
2023-03-17T01:35:52.521Z,101760.25
2023-03-17T01:42:35.569Z,101750.03
2023-03-17T01:49:37.468Z,101740.59
2023-03-17T01:56:20.431Z,101741.50
2023-03-17T02:03:04.396Z,101733.72
2023-03-17T02:09:47.530Z,101738.06
2023-03-17T02:16:31.733Z,101728.53
2023-03-17T02:23:25.722Z,101731.13
2023-03-17T02:30:11.893Z,101729.41
2023-03-17T02:36:54.254Z,101721.66
2023-03-17T02:43:37.397Z,101706.09
2023-03-17T02:50:24.510Z,101700.94
2023-03-17T02:57:08.441Z,101696.53
2023-03-17T03:03:50.760Z,101700.06
2023-03-17T03:10:33.061Z,101709.50
2023-03-17T03:17:16.002Z,101706.09
2023-03-17T03:23:58.312Z,101709.56
2023-03-17T03:30:41.665Z,101713.88
2023-03-17T03:37:23.872Z,101726.88
2023-03-17T03:44:06.468Z,101704.41
2023-03-17T03:50:48.839Z,101719.94
2023-03-17T03:57:31.026Z,101731.94
2023-03-17T04:04:13.248Z,101726.75
2023-03-17T04:10:55.724Z,101722.53
2023-03-17T04:17:38.169Z,101713.13
2023-03-17T04:24:20.331Z,101702.75
2023-03-17T04:31:02.648Z,101714.03
2023-03-17T04:37:45.667Z,101687.34
2023-03-17T04:44:28.165Z,101689.91
2023-03-17T04:51:11.790Z,101679.56
2023-03-17T04:57:54.346Z,101696.84
2023-03-17T05:04:36.526Z,101689.97
2023-03-17T05:11:19.386Z,101685.69
2023-03-17T05:18:03.301Z,101695.97
2023-03-17T05:24:47.636Z,101708.16
2023-03-17T05:31:31.085Z,101705.59
2023-03-17T05:38:16.041Z,101686.56
2023-03-17T05:44:58.611Z,101688.41
2023-03-17T05:51:41.937Z,101691.13
2023-03-17T05:58:24.110Z,101672.31
2023-03-17T06:05:08.938Z,101670.72
2023-03-17T06:11:51.335Z,101676.19
2023-03-17T06:18:33.588Z,101678.16
2023-03-17T06:25:15.928Z,101692.38
2023-03-17T06:32:03.652Z,101691.81
2023-03-17T06:38:51.681Z,101693.97
2023-03-17T06:45:34.257Z,101696.19
2023-03-17T06:52:16.774Z,101694.97
2023-03-17T06:58:59.460Z,101691.03
2023-03-17T07:05:42.648Z,101697.44
2023-03-17T07:12:24.880Z,101693.50
2023-03-17T07:19:07.630Z,101712.91
2023-03-17T07:25:50.767Z,101704.63
2023-03-17T07:32:33.263Z,101703.34
2023-03-17T07:39:15.679Z,101697.75
2023-03-17T07:45:58.174Z,101693.16
2023-03-17T07:52:41.080Z,101679.84
2023-03-17T07:59:24.004Z,101670.84
2023-03-17T08:06:06.716Z,101666.03
2023-03-17T08:12:51.959Z,101664.56
2023-03-17T08:19:34.189Z,101670.16
2023-03-17T08:26:16.715Z,101660.06
2023-03-17T08:32:59.227Z,101644.03
2023-03-17T08:39:41.510Z,101627.97
2023-03-17T08:46:28.858Z,101636.19
2023-03-17T08:53:11.956Z,101627.13
2023-03-17T08:59:54.399Z,101625.91
2023-03-17T09:06:38.724Z,101615.84
2023-03-17T09:13:22.024Z,101609.28
2023-03-17T09:20:06.823Z,101595.91
2023-03-17T09:26:48.912Z,101597.22
2023-03-17T09:33:31.762Z,101592.16
2023-03-17T09:40:19.500Z,101588.09
2023-03-17T09:47:42.926Z,101584.81
2023-03-17T09:54:34.644Z,101584.19
2023-03-17T10:01:16.987Z,101583.56
2023-03-17T10:08:29.641Z,101561.91
2023-03-17T10:15:24.252Z,101564.75
2023-03-17T10:22:43.446Z,101543.19
2023-03-17T10:29:25.635Z,101523.41
2023-03-17T10:36:15.773Z,101518.53
2023-03-17T10:43:08.679Z,101511.88
2023-03-17T10:49:54.936Z,101504.22
2023-03-17T10:56:42.421Z,101492.22
2023-03-17T11:03:29.978Z,101469.72
2023-03-17T11:10:40.281Z,101455.84
2023-03-17T11:17:47.943Z,101454.16
2023-03-17T11:24:33.633Z,101428.91
2023-03-17T11:31:49.226Z,101425.44
2023-03-17T11:39:11.054Z,101406.22
2023-03-17T11:46:04.860Z,101406.22
2023-03-17T11:53:21.097Z,101423.75
2023-03-17T12:00:04.622Z,101405.50
2023-03-17T12:07:04.628Z,101395.13
2023-03-17T12:13:56.902Z,101385.53
2023-03-17T12:20:54.592Z,101391.66
2023-03-17T12:28:06.634Z,101382.91
2023-03-17T12:35:06.039Z,101373.22
2023-03-17T12:41:59.899Z,101374.03
2023-03-17T12:49:01.277Z,101395.84
2023-03-17T12:55:49.258Z,101391.47
2023-03-17T13:02:38.657Z,101393.16
2023-03-17T13:09:53.941Z,101393.16
2023-03-17T13:16:41.295Z,101384.28
2023-03-17T13:23:41.995Z,101383.28
2023-03-17T13:30:26.313Z,101374.38
2023-03-17T13:37:20.434Z,101363.78
2023-03-17T13:44:39.010Z,101359.28
2023-03-17T13:51:25.826Z,101341.66
2023-03-17T13:58:10.842Z,101331.03
2023-03-17T14:04:56.858Z,101296.72
2023-03-17T14:11:41.386Z,101281.81
2023-03-17T14:18:34.257Z,101252.91
2023-03-17T14:25:26.782Z,101257.41
2023-03-17T14:32:16.062Z,101254.88
2023-03-17T14:38:58.329Z,101251.41
2023-03-17T14:45:50.302Z,101255.78
2023-03-17T14:52:35.690Z,101248.78
2023-03-17T14:59:33.447Z,101258.53
2023-03-17T15:06:28.283Z,101244.53
2023-03-17T15:13:12.073Z,101241.97
2023-03-17T15:19:58.110Z,101231.56
2023-03-17T15:26:40.318Z,101243.94
2023-03-17T15:33:42.913Z,101240.56
2023-03-17T15:40:25.124Z,101241.53
2023-03-17T15:47:07.846Z,101237.25
2023-03-17T15:53:50.214Z,101246.09
2023-03-17T16:00:33.400Z,101244.41
2023-03-17T16:07:15.933Z,101241.03
2023-03-17T16:13:59.958Z,101229.66
2023-03-17T16:20:49.520Z,101235.88
2023-03-17T16:27:31.763Z,101242.03
2023-03-17T16:34:23.928Z,101249.91
2023-03-17T16:41:28.372Z,101244.69
2023-03-17T16:48:14.888Z,101242.06
2023-03-17T16:54:57.390Z,101235.94
2023-03-17T17:01:39.777Z,101235.03
2023-03-17T17:08:22.487Z,101227.13
2023-03-17T17:15:05.733Z,101219.25
2023-03-17T17:21:47.931Z,101224.44
2023-03-17T17:28:30.206Z,101221.72
2023-03-17T17:35:14.682Z,101230.41
2023-03-17T17:41:56.914Z,101239.13
2023-03-17T17:48:39.353Z,101230.34
2023-03-17T17:55:21.660Z,101219.84
2023-03-17T18:02:04.093Z,101221.56
2023-03-17T18:08:46.383Z,101232.00
2023-03-17T18:15:28.741Z,101243.28
2023-03-17T18:22:11.506Z,101234.53
2023-03-17T18:28:53.593Z,101242.34
2023-03-17T18:35:36.589Z,101241.44
2023-03-17T18:42:18.774Z,101244.00
2023-03-17T18:49:01.083Z,101230.00
2023-03-17T18:55:43.320Z,101231.69
2023-03-17T19:02:25.802Z,101223.81
2023-03-17T19:09:09.670Z,101222.00
2023-03-17T19:15:52.176Z,101219.31
2023-03-17T19:22:35.043Z,101222.72
2023-03-17T19:29:17.477Z,101208.72
2023-03-17T19:36:02.712Z,101199.09
2023-03-17T19:42:44.998Z,101201.63
2023-03-17T19:49:27.354Z,101207.63
2023-03-17T19:56:10.909Z,101198.00
2023-03-17T20:02:53.196Z,101195.31
2023-03-17T20:09:38.046Z,101191.78
2023-03-17T20:16:20.338Z,101198.69
2023-03-17T20:23:02.803Z,101184.72
2023-03-17T20:29:46.507Z,101182.06
2023-03-17T20:36:29.218Z,101167.25
2023-03-17T20:43:11.526Z,101157.63
2023-03-17T20:49:57.843Z,101170.63
2023-03-17T20:56:40.458Z,101158.41
2023-03-17T21:03:22.733Z,101156.59
2023-03-17T21:10:05.274Z,101152.22
2023-03-17T21:16:47.873Z,101152.19
2023-03-17T21:23:29.987Z,101149.56
2023-03-17T21:30:14.358Z,101143.41
2023-03-17T21:36:57.442Z,101146.03
2023-03-17T21:43:40.401Z,101127.75
2023-03-17T21:50:23.154Z,101132.09
2023-03-17T21:57:05.635Z,101124.25
2023-03-17T22:03:49.446Z,101127.72
2023-03-17T22:10:31.990Z,101135.59
2023-03-17T22:17:14.923Z,101135.59
2023-03-17T22:23:57.645Z,101129.53
2023-03-17T22:30:39.892Z,101130.41
2023-03-17T22:37:22.365Z,101123.41
2023-03-17T22:44:04.741Z,101124.28
2023-03-17T22:50:46.905Z,101112.94
2023-03-17T22:57:29.105Z,101114.66
2023-03-17T23:04:11.359Z,101112.00
2023-03-17T23:10:54.026Z,101115.47
2023-03-17T23:17:36.714Z,101117.16
2023-03-17T23:24:21.056Z,101105.84
2023-03-17T23:31:03.714Z,101097.97
2023-03-17T23:37:46.532Z,101100.56
2023-03-17T23:44:28.748Z,101100.53
2023-03-17T23:51:12.734Z,101084.84
2023-03-17T23:57:55.089Z,101107.34
